createdAt,value
2018-07-05T00:00:10.300Z,1000.34
2018-07-05T00:00:50.787Z,1000.34
2018-07-05T00:03:09.443Z,1000.25
2018-07-05T00:03:49.953Z,1000.24
2018-07-05T00:04:31.452Z,1000.29
2018-07-05T00:05:12.942Z,1000.23
2018-07-05T00:05:53.448Z,1000.23
2018-07-05T00:06:33.926Z,1000.19
2018-07-05T00:07:14.454Z,1000.27
2018-07-05T00:07:54.933Z,1000.25
2018-07-05T00:08:36.316Z,1000.25
2018-07-05T00:09:16.866Z,1000.18
2018-07-05T00:09:57.376Z,1000.19
2018-07-05T00:10:37.809Z,1000.22
2018-07-05T00:11:18.294Z,1000.18
2018-07-05T00:11:58.830Z,1000.13
2018-07-05T00:12:39.344Z,1000.19
2018-07-05T00:13:19.840Z,1000.16
2018-07-05T00:14:00.928Z,1000.19
2018-07-05T00:14:41.412Z,1000.18
2018-07-05T00:15:21.903Z,1000.16
2018-07-05T00:16:03.199Z,1000.14
2018-07-05T00:16:43.855Z,1000.16
2018-07-05T00:17:25.105Z,1000.14
2018-07-05T00:18:05.607Z,1000.11
2018-07-05T00:18:46.133Z,1000.11
2018-07-05T00:19:26.636Z,1000.14
2018-07-05T00:20:07.139Z,1000.11
2018-07-05T00:20:47.646Z,1000.12
2018-07-05T00:21:28.136Z,1000.09
2018-07-05T00:22:09.211Z,1000.13
2018-07-05T00:22:50.646Z,1000.14
2018-07-05T00:23:31.758Z,1000.12
2018-07-05T00:24:12.205Z,1000.16
2018-07-05T00:24:52.705Z,1000.19
2018-07-05T00:25:34.041Z,1000.12
2018-07-05T00:26:14.521Z,1000.2
2018-07-05T00:26:55.013Z,1000.22
2018-07-05T00:27:35.512Z,1000.19
2018-07-05T00:28:16.016Z,1000.19
2018-07-05T00:28:57.703Z,1000.18
2018-07-05T00:29:38.187Z,1000.22
2018-07-05T00:30:19.374Z,1000.23
2018-07-05T00:31:00.365Z,1000.24
2018-07-05T00:31:40.840Z,1000.19
2018-07-05T00:32:21.360Z,1000.19
2018-07-05T00:33:01.880Z,1000.24
2018-07-05T00:33:42.346Z,1000.25
2018-07-05T00:34:22.818Z,1000.2
2018-07-05T00:35:04.216Z,1000.25
2018-07-05T00:35:44.719Z,1000.28
2018-07-05T00:36:25.178Z,1000.22
2018-07-05T00:37:05.684Z,1000.23
2018-07-05T00:37:46.207Z,1000.26
2018-07-05T00:38:26.709Z,1000.26
2018-07-05T00:39:07.187Z,1000.27
2018-07-05T00:39:47.678Z,1000.23
2018-07-05T00:40:28.139Z,1000.27
2018-07-05T00:41:09.449Z,1000.29
2018-07-05T00:41:49.956Z,1000.28
2018-07-05T00:42:30.429Z,1000.3
2018-07-05T00:43:11.724Z,1000.33
2018-07-05T00:43:52.203Z,1000.32
2018-07-05T00:44:33.548Z,1000.34
2018-07-05T00:45:14.072Z,1000.33
2018-07-05T00:45:54.530Z,1000.29
2018-07-05T00:46:35.005Z,1000.3
2018-07-05T00:47:15.526Z,1000.26
2018-07-05T00:47:55.988Z,1000.25
2018-07-05T00:48:36.538Z,1000.25
2018-07-05T00:49:16.988Z,1000.26
2018-07-05T00:49:57.463Z,1000.25
2018-07-05T00:50:37.986Z,1000.2
2018-07-05T00:51:18.473Z,1000.18
2018-07-05T00:51:58.984Z,1000.21
2018-07-05T00:52:39.453Z,1000.2
2018-07-05T00:53:19.924Z,1000.17
2018-07-05T00:54:00.471Z,1000.16
2018-07-05T00:54:40.981Z,1000.18
2018-07-05T00:55:21.474Z,1000.21
2018-07-05T00:56:01.963Z,1000.2
2018-07-05T00:56:42.459Z,1000.17
2018-07-05T00:57:22.978Z,1000.18
2018-07-05T00:58:03.431Z,1000.16
2018-07-05T00:58:43.992Z,1000.16
2018-07-05T00:59:24.441Z,1000.16
2018-07-05T01:00:04.929Z,1000.15
2018-07-05T01:00:45.428Z,1000.15
2018-07-05T01:01:25.924Z,1000.19
2018-07-05T01:02:07.935Z,1000.15
2018-07-05T01:02:48.444Z,1000.2
2018-07-05T01:03:28.954Z,1000.2
2018-07-05T01:04:09.420Z,1000.18
2018-07-05T01:04:49.959Z,1000.17
2018-07-05T01:05:30.416Z,1000.2
2018-07-05T01:06:10.928Z,1000.21
2018-07-05T01:06:51.422Z,1000.21
2018-07-05T01:07:31.950Z,1000.25
2018-07-05T01:08:12.445Z,1000.26
2018-07-05T01:08:52.926Z,1000.22
2018-07-05T01:09:33.521Z,1000.19
2018-07-05T01:10:13.998Z,1000.23
2018-07-05T01:10:54.477Z,1000.19
2018-07-05T01:11:34.956Z,1000.18
2018-07-05T01:12:15.438Z,1000.22
2018-07-05T01:12:57.586Z,1000.21
2018-07-05T01:13:38.078Z,1000.2
2018-07-05T01:14:18.578Z,1000.22
2018-07-05T01:14:59.841Z,1000.24
2018-07-05T01:15:40.364Z,1000.21
2018-07-05T01:16:21.637Z,1000.3
2018-07-05T01:17:02.153Z,1000.29
2018-07-05T01:17:42.663Z,1000.3
2018-07-05T01:18:24.138Z,1000.26
2018-07-05T01:19:04.630Z,1000.3
2018-07-05T01:19:45.147Z,1000.33
2018-07-05T01:20:25.593Z,1000.33
2018-07-05T01:21:06.134Z,1000.28
2018-07-05T01:21:47.565Z,1000.33
2018-07-05T01:22:28.072Z,1000.34
2018-07-05T01:23:08.595Z,1000.36
2018-07-05T01:23:49.074Z,1000.36
2018-07-05T01:24:29.558Z,1000.4
2018-07-05T01:25:10.066Z,1000.36
2018-07-05T01:25:50.607Z,1000.4
2018-07-05T01:26:31.061Z,1000.35
2018-07-05T01:27:11.592Z,1000.34
2018-07-05T01:27:52.052Z,1000.35
2018-07-05T01:28:32.551Z,1000.37
2018-07-05T01:29:13.113Z,1000.39
2018-07-05T01:29:53.632Z,1000.38
2018-07-05T01:30:34.121Z,1000.4
2018-07-05T01:31:14.565Z,1000.41
2018-07-05T01:31:55.060Z,1000.42
2018-07-05T01:32:35.564Z,1000.45
2018-07-05T01:33:16.056Z,1000.41
2018-07-05T01:33:56.561Z,1000.42
2018-07-05T01:34:37.048Z,1000.38
2018-07-05T01:35:17.558Z,1000.36
2018-07-05T01:35:58.081Z,1000.36
2018-07-05T01:36:39.494Z,1000.36
2018-07-05T01:37:20.887Z,1000.35
2018-07-05T01:38:02.070Z,1000.37
2018-07-05T01:38:42.517Z,1000.39
2018-07-05T01:39:23.038Z,1000.37
2018-07-05T01:40:04.143Z,1000.38
2018-07-05T01:40:44.677Z,1000.33
2018-07-05T01:41:25.154Z,1000.37
2018-07-05T01:42:05.680Z,1000.36
2018-07-05T01:42:46.135Z,1000.41
2018-07-05T01:43:26.637Z,1000.39
2018-07-05T01:44:07.138Z,1000.36
2018-07-05T01:44:47.668Z,1000.38
2018-07-05T01:45:28.762Z,1000.39
2018-07-05T01:46:09.245Z,1000.4
2018-07-05T01:46:50.607Z,1000.38
2018-07-05T01:47:31.033Z,1000.39
2018-07-05T01:48:11.536Z,1000.37
2018-07-05T01:48:52.025Z,1000.36
2018-07-05T01:49:32.544Z,1000.36
2018-07-05T01:50:13.025Z,1000.34
2018-07-05T01:50:53.513Z,1000.32
2018-07-05T01:51:33.978Z,1000.32
2018-07-05T01:52:14.493Z,1000.34
2018-07-05T01:52:55.913Z,1000.3
2018-07-05T01:53:36.360Z,1000.29
2018-07-05T01:54:17.569Z,1000.35
2018-07-05T01:54:58.079Z,1000.35
2018-07-05T01:55:38.638Z,1000.34
2018-07-05T01:56:20.099Z,1000.36
2018-07-05T01:57:00.601Z,1000.38
2018-07-05T01:57:41.063Z,1000.39
2018-07-05T01:58:21.613Z,1000.42
2018-07-05T01:59:02.983Z,1000.42
2018-07-05T01:59:44.421Z,1000.46
2018-07-05T02:00:24.878Z,1000.42
2018-07-05T02:01:06.073Z,1000.48
2018-07-05T02:01:46.560Z,1000.44
2018-07-05T02:02:27.103Z,1000.45
2018-07-05T02:03:07.575Z,1000.47
2018-07-05T02:03:48.058Z,1000.43
2018-07-05T02:04:28.571Z,1000.45
2018-07-05T02:05:09.047Z,1000.5
2018-07-05T02:05:49.580Z,1000.48
2018-07-05T02:06:30.070Z,1000.5
2018-07-05T02:07:11.427Z,1000.49
2018-07-05T02:07:51.896Z,1000.47
2018-07-05T02:08:32.403Z,1000.46
2018-07-05T02:09:12.874Z,1000.48
2018-07-05T02:09:53.393Z,1000.5
2018-07-05T02:10:34.660Z,1000.51
2018-07-05T02:11:15.120Z,1000.5
2018-07-05T02:11:55.630Z,1000.46
2018-07-05T02:12:36.087Z,1000.5
2018-07-05T02:13:16.581Z,1000.52
2018-07-05T02:13:57.154Z,1000.49
2018-07-05T02:14:37.621Z,1000.52
2018-07-05T02:15:18.077Z,1000.51
2018-07-05T02:15:58.567Z,1000.52
2018-07-05T02:16:39.163Z,1000.53
2018-07-05T02:17:19.652Z,1000.48
2018-07-05T02:18:01.008Z,1000.48
2018-07-05T02:18:41.535Z,1000.46
2018-07-05T02:19:22.041Z,1000.44
2018-07-05T02:20:02.501Z,1000.44
2018-07-05T02:20:43.592Z,1000.41
2018-07-05T02:21:24.107Z,1000.43
2018-07-05T02:22:06.398Z,1000.43
2018-07-05T02:22:46.922Z,1000.46
2018-07-05T02:23:28.016Z,1000.44
2018-07-05T02:24:08.529Z,1000.41
2018-07-05T02:24:49.005Z,1000.43
2018-07-05T02:25:29.498Z,1000.4
2018-07-05T02:26:10.032Z,1000.42
2018-07-05T02:26:50.529Z,1000.41
2018-07-05T02:27:31.015Z,1000.4
2018-07-05T02:28:11.495Z,1000.43
2018-07-05T02:28:52.987Z,1000.37
2018-07-05T02:29:33.529Z,1000.35
2018-07-05T02:30:14.039Z,1000.35
2018-07-05T02:30:55.024Z,1000.33
2018-07-05T02:31:35.468Z,1000.32
2018-07-05T02:32:15.939Z,1000.34
2018-07-05T02:32:56.480Z,1000.27
2018-07-05T02:33:36.933Z,1000.27
2018-07-05T02:34:17.427Z,1000.3
2018-07-05T02:34:57.980Z,1000.29
2018-07-05T02:35:38.411Z,1000.32
2018-07-05T02:36:18.892Z,1000.3
2018-07-05T02:36:59.372Z,1000.32
2018-07-05T02:37:39.860Z,1000.3
2018-07-05T02:38:20.336Z,1000.31
2018-07-05T02:39:00.855Z,1000.29
2018-07-05T02:39:41.372Z,1000.27
2018-07-05T02:40:21.830Z,1000.29
2018-07-05T02:41:02.365Z,1000.29
2018-07-05T02:41:42.831Z,1000.33
2018-07-05T02:42:23.319Z,1000.29
2018-07-05T02:43:03.767Z,1000.34
2018-07-05T02:43:44.292Z,1000.31
2018-07-05T02:44:25.768Z,1000.33
2018-07-05T02:45:06.286Z,1000.31
2018-07-05T02:45:47.611Z,1000.31
2018-07-05T02:46:28.127Z,1000.3
2018-07-05T02:47:08.607Z,1000.27
2018-07-05T02:47:49.909Z,1000.27
2018-07-05T02:48:30.391Z,1000.26
2018-07-05T02:49:10.942Z,1000.32
2018-07-05T02:49:52.068Z,1000.33
2018-07-05T02:50:32.561Z,1000.32
2018-07-05T02:51:13.939Z,1000.35
2018-07-05T02:51:54.419Z,1000.36
2018-07-05T02:52:35.811Z,1000.34
2018-07-05T02:53:16.263Z,1000.36
2018-07-05T02:53:56.779Z,1000.35
2018-07-05T02:54:37.268Z,1000.36
2018-07-05T02:55:17.793Z,1000.37
2018-07-05T02:55:58.312Z,1000.36
2018-07-05T02:56:38.779Z,1000.35
2018-07-05T02:57:19.833Z,1000.4
2018-07-05T02:58:00.313Z,1000.35
2018-07-05T02:58:40.797Z,1000.37
2018-07-05T02:59:21.325Z,1000.37
2018-07-05T03:00:01.804Z,1000.36
2018-07-05T03:00:42.287Z,1000.39
2018-07-05T03:01:22.801Z,1000.4
2018-07-05T03:02:03.261Z,1000.4
2018-07-05T03:02:43.811Z,1000.47
2018-07-05T03:03:24.268Z,1000.5
2018-07-05T03:04:04.738Z,1000.44
2018-07-05T03:04:46.197Z,1000.53
2018-07-05T03:05:26.651Z,1000.55
2018-07-05T03:06:07.188Z,1000.61
2018-07-05T03:06:48.618Z,1000.61
2018-07-05T03:07:29.130Z,1000.58
2018-07-05T03:08:09.593Z,1000.57
2018-07-05T03:08:50.148Z,1000.56
2018-07-05T03:09:30.574Z,1000.55
2018-07-05T03:10:11.108Z,1000.56
2018-07-05T03:10:51.567Z,1000.56
2018-07-05T03:11:32.105Z,1000.54
2018-07-05T03:12:13.279Z,1000.55
2018-07-05T03:12:53.782Z,1000.57
2018-07-05T03:13:34.930Z,1000.56
2018-07-05T03:14:15.447Z,1000.58
2018-07-05T03:14:55.938Z,1000.56
2018-07-05T03:15:36.413Z,1000.58
2018-07-05T03:16:16.928Z,1000.57
2018-07-05T03:16:57.457Z,1000.61
2018-07-05T03:17:37.943Z,1000.6
2018-07-05T03:18:19.131Z,1000.61
2018-07-05T03:18:59.631Z,1000.61
2018-07-05T03:19:41.109Z,1000.63
2018-07-05T03:20:22.323Z,1000.62
2018-07-05T03:21:02.810Z,1000.64
2018-07-05T03:21:43.305Z,1000.65
2018-07-05T03:22:23.798Z,1000.63
2018-07-05T03:23:04.279Z,1000.58
2018-07-05T03:23:44.782Z,1000.61
2018-07-05T03:24:25.283Z,1000.59
2018-07-05T03:25:05.794Z,1000.56
2018-07-05T03:25:47.196Z,1000.58
2018-07-05T03:26:27.709Z,1000.53
2018-07-05T03:27:08.204Z,1000.52
2018-07-05T03:27:48.686Z,1000.51
2018-07-05T03:28:29.216Z,1000.48
2018-07-05T03:29:09.699Z,1000.5
2018-07-05T03:29:50.184Z,1000.48
2018-07-05T03:30:30.621Z,1000.51
2018-07-05T03:31:11.166Z,1000.52
2018-07-05T03:31:52.151Z,1000.51
2018-07-05T03:32:32.631Z,1000.54
2018-07-05T03:33:14.651Z,1000.57
2018-07-05T03:33:55.131Z,1000.62
2018-07-05T03:34:35.639Z,1000.61
2018-07-05T03:35:16.114Z,1000.64
2018-07-05T03:35:56.622Z,1000.6
2018-07-05T03:36:37.117Z,1000.67
2018-07-05T03:37:18.486Z,1000.68
2018-07-05T03:37:59.062Z,1000.69
2018-07-05T03:38:40.185Z,1000.68
2018-07-05T03:39:21.629Z,1000.68
2018-07-05T03:40:02.820Z,1000.73
2018-07-05T03:40:43.366Z,1000.65
2018-07-05T03:41:23.835Z,1000.63
2018-07-05T03:42:04.403Z,1000.64
2018-07-05T03:42:44.818Z,1000.62
2018-07-05T03:43:25.377Z,1000.63
2018-07-05T03:45:23.635Z,1000.67
2018-07-05T03:46:05.069Z,1000.69
2018-07-05T03:46:45.590Z,1000.67
2018-07-05T03:47:26.304Z,1000.69
2018-07-05T03:48:06.824Z,1000.72
2018-07-05T03:48:47.311Z,1000.72
2018-07-05T03:49:28.793Z,1000.72
2018-07-05T03:50:09.296Z,1000.7
2018-07-05T03:50:49.844Z,1000.72
2018-07-05T03:51:30.311Z,1000.73
2018-07-05T03:52:10.777Z,1000.78
2018-07-05T03:52:51.274Z,1000.79
2018-07-05T03:53:32.615Z,1000.8
2018-07-05T03:54:13.798Z,1000.77
2018-07-05T03:54:54.307Z,1000.79
2018-07-05T03:55:34.800Z,1000.7
2018-07-05T03:56:15.304Z,1000.78
2018-07-05T03:56:55.834Z,1000.72
2018-07-05T03:59:15.466Z,1000.71
2018-07-05T03:59:55.927Z,1000.73
2018-07-05T04:00:36.430Z,1000.71
2018-07-05T04:01:16.921Z,1000.77
2018-07-05T04:01:57.497Z,1000.74
2018-07-05T04:02:37.983Z,1000.75
2018-07-05T04:03:18.500Z,1000.77
2018-07-05T04:03:58.993Z,1000.81
2018-07-05T04:04:39.510Z,1000.78
2018-07-05T04:05:20.854Z,1000.77
2018-07-05T04:06:01.357Z,1000.8
2018-07-05T04:06:41.884Z,1000.81
2018-07-05T04:07:22.419Z,1000.83
2018-07-05T04:08:02.895Z,1000.85
2018-07-05T04:08:43.379Z,1000.87
2018-07-05T04:09:23.846Z,1000.84
2018-07-05T04:10:04.397Z,1000.86
2018-07-05T04:10:44.953Z,1000.85
2018-07-05T04:11:26.140Z,1000.85
2018-07-05T04:12:06.658Z,1000.82
2018-07-05T04:12:47.158Z,1000.81
2018-07-05T04:13:28.461Z,1000.83
2018-07-05T04:14:09.864Z,1000.81
2018-07-05T04:14:51.063Z,1000.83
2018-07-05T04:15:31.515Z,1000.81
2018-07-05T04:16:12.045Z,1000.84
2018-07-05T04:16:53.394Z,1000.86
2018-07-05T04:17:33.886Z,1000.85
2018-07-05T04:18:14.390Z,1000.82
2018-07-05T04:18:54.861Z,1000.86
2018-07-05T04:19:35.329Z,1000.86
2018-07-05T04:20:15.953Z,1000.86
2018-07-05T04:20:56.309Z,1000.88
2018-07-05T04:21:36.861Z,1000.87
2018-07-05T04:22:17.337Z,1000.84
2018-07-05T04:22:57.858Z,1000.89
2018-07-05T04:23:39.305Z,1000.89
2018-07-05T04:24:19.757Z,1000.86
2018-07-05T04:25:00.308Z,1000.89
2018-07-05T04:25:41.497Z,1000.92
2018-07-05T04:26:22.000Z,1000.94
2018-07-05T04:27:02.470Z,1000.97
2018-07-05T04:27:42.979Z,1000.94
2018-07-05T04:28:23.463Z,1000.93
2018-07-05T04:29:04.664Z,1000.9
2018-07-05T04:29:45.119Z,1000.93
2018-07-05T04:30:25.697Z,1000.89
2018-07-05T04:31:06.182Z,1000.92
2018-07-05T04:31:46.674Z,1000.9
2018-07-05T04:32:27.173Z,1000.89
2018-07-05T04:33:07.702Z,1000.94
2018-07-05T04:33:48.211Z,1000.94
2018-07-05T04:34:28.682Z,1000.96
2018-07-05T04:35:09.229Z,1000.95
2018-07-05T04:35:49.728Z,1000.96
2018-07-05T04:36:30.213Z,1000.92
2018-07-05T04:37:10.756Z,1000.93
2018-07-05T04:37:51.338Z,1000.94
2018-07-05T04:38:31.790Z,1000.94
2018-07-05T04:39:12.250Z,1000.91
2018-07-05T04:39:52.768Z,1000.91
2018-07-05T04:40:34.166Z,1000.94
2018-07-05T04:41:14.519Z,1000.92
2018-07-05T04:41:55.010Z,1000.9
2018-07-05T04:42:35.589Z,1000.9
2018-07-05T04:43:16.272Z,1000.91
2018-07-05T04:43:58.662Z,1000.92
2018-07-05T04:44:39.135Z,1000.91
2018-07-05T04:45:19.675Z,1000.87
2018-07-05T04:46:00.225Z,1000.9
2018-07-05T04:46:40.645Z,1000.87
2018-07-05T04:47:21.202Z,1000.9
2018-07-05T04:48:01.760Z,1000.93
2018-07-05T04:48:42.937Z,1000.89
2018-07-05T04:49:23.392Z,1000.88
2018-07-05T04:50:03.894Z,1000.84
2018-07-05T04:50:45.292Z,1000.87
2018-07-05T04:51:26.124Z,1000.85
2018-07-05T04:52:06.612Z,1000.9
2018-07-05T04:52:47.121Z,1000.92
2018-07-05T04:53:27.596Z,1000.91
2018-07-05T04:54:08.127Z,1000.91
2018-07-05T04:54:48.616Z,1000.89
2018-07-05T04:55:29.826Z,1000.92
2018-07-05T04:56:11.080Z,1000.93
2018-07-05T04:56:51.601Z,1000.93
2018-07-05T04:57:32.103Z,1000.95
2018-07-05T04:58:13.079Z,1000.9
2018-07-05T04:58:53.707Z,1000.95
2018-07-05T04:59:34.094Z,1000.95
2018-07-05T05:00:14.630Z,1000.96
2018-07-05T05:00:55.367Z,1000.92
2018-07-05T05:01:35.833Z,1000.97
2018-07-05T05:02:18.106Z,1000.94
2018-07-05T05:02:58.588Z,1000.96
2018-07-05T05:03:39.045Z,1000.94
2018-07-05T05:04:19.583Z,1000.96
2018-07-05T05:05:00.079Z,1000.95
2018-07-05T05:05:40.542Z,1000.97
2018-07-05T05:06:21.060Z,1000.97
2018-07-05T05:07:01.954Z,1000.98
2018-07-05T05:07:42.466Z,1000.94
2018-07-05T05:08:22.931Z,1001
2018-07-05T05:09:03.460Z,1000.98
2018-07-05T05:09:43.998Z,1000.99
2018-07-05T05:10:24.489Z,1000.98
2018-07-05T05:11:04.993Z,1001.02
2018-07-05T05:11:45.549Z,1000.98
2018-07-05T05:12:26.053Z,1000.98
2018-07-05T05:13:06.551Z,1000.97
2018-07-05T05:13:47.064Z,1001.01
2018-07-05T05:14:27.554Z,1001.01
2018-07-05T05:15:08.096Z,1001.04
2018-07-05T05:15:48.612Z,1001.03
2018-07-05T05:16:29.127Z,1001.04
2018-07-05T05:17:10.470Z,1001.05
2018-07-05T05:17:50.976Z,1001.07
2018-07-05T05:18:31.658Z,1001.06
2018-07-05T05:19:12.192Z,1001.02
2018-07-05T05:19:52.795Z,1001.1
2018-07-05T05:20:33.999Z,1001.03
2018-07-05T05:21:15.113Z,1001.05
2018-07-05T05:21:56.169Z,1001.08
2018-07-05T05:22:36.671Z,1001.04
2018-07-05T05:23:17.170Z,1001.08
2018-07-05T05:23:57.674Z,1001.04
2018-07-05T05:24:38.137Z,1001.07
2018-07-05T05:25:18.600Z,1001.04
2018-07-05T05:25:59.137Z,1001.05
2018-07-05T05:26:39.633Z,1001.05
2018-07-05T05:27:20.131Z,1001.04
2018-07-05T05:28:00.630Z,1001.06
2018-07-05T05:28:41.130Z,1001.08
2018-07-05T05:29:21.645Z,1001.09
2018-07-05T05:30:02.234Z,1001.08
2018-07-05T05:30:42.680Z,1001.08
2018-07-05T05:31:23.197Z,1001.1
2018-07-05T05:32:03.675Z,1001.12
2018-07-05T05:32:44.157Z,1001.1
2018-07-05T05:33:24.697Z,1001.11
2018-07-05T05:34:06.020Z,1001.12
2018-07-05T05:34:46.520Z,1001.13
2018-07-05T05:35:27.029Z,1001.13
2018-07-05T05:36:07.551Z,1001.14
2018-07-05T05:36:49.001Z,1001.07
2018-07-05T05:37:29.367Z,1001.11
2018-07-05T05:38:10.682Z,1001.09
2018-07-05T05:38:51.221Z,1001.09
2018-07-05T05:39:31.674Z,1001.1
2018-07-05T05:40:12.185Z,1001.1
2018-07-05T05:40:52.717Z,1001.1
2018-07-05T05:41:33.174Z,1001.1
2018-07-05T05:42:13.661Z,1001.14
2018-07-05T05:42:54.881Z,1001.11
2018-07-05T05:43:35.345Z,1001.16
2018-07-05T05:44:15.845Z,1001.13
2018-07-05T05:44:58.459Z,1001.15
2018-07-05T05:45:38.325Z,1001.11
2018-07-05T05:46:18.791Z,1001.13
2018-07-05T05:46:59.358Z,1001.16
2018-07-05T05:47:39.940Z,1001.11
2018-07-05T05:48:20.376Z,1001.14
2018-07-05T05:49:00.860Z,1001.12
2018-07-05T05:49:41.334Z,1001.12
2018-07-05T05:50:21.869Z,1001.16
2018-07-05T05:51:02.398Z,1001.16
2018-07-05T05:51:42.883Z,1001.19
2018-07-05T05:52:23.574Z,1001.13
2018-07-05T05:53:06.025Z,1001.12
2018-07-05T05:53:46.501Z,1001.14
2018-07-05T05:54:27.016Z,1001.15
2018-07-05T05:55:08.036Z,1001.13
2018-07-05T05:55:48.539Z,1001.12
2018-07-05T05:56:29.040Z,1001.12
2018-07-05T05:57:09.490Z,1001.13
2018-07-05T05:57:50.941Z,1001.1
2018-07-05T05:58:31.429Z,1001.15
2018-07-05T05:59:12.543Z,1001.09
2018-07-05T05:59:53.025Z,1001.16
2018-07-05T06:00:34.208Z,1001.13
2018-07-05T06:01:14.750Z,1001.12
2018-07-05T06:01:55.233Z,1001.17
2018-07-05T06:02:35.727Z,1001.12
2018-07-05T06:03:16.486Z,1001.12
2018-07-05T06:03:56.980Z,1001.15
2018-07-05T06:04:38.115Z,1001.16
2018-07-05T06:05:18.714Z,1001.15
2018-07-05T06:05:59.087Z,1001.16
2018-07-05T06:06:39.664Z,1001.14
2018-07-05T06:07:20.164Z,1001.12
2018-07-05T06:08:00.682Z,1001.16
2018-07-05T06:08:41.125Z,1001.15
2018-07-05T06:09:21.628Z,1001.17
2018-07-05T06:10:02.648Z,1001.16
2018-07-05T06:10:43.186Z,1001.15
2018-07-05T06:11:23.664Z,1001.12
2018-07-05T06:12:04.192Z,1001.15
2018-07-05T06:12:44.932Z,1001.17
2018-07-05T06:13:25.454Z,1001.13
2018-07-05T06:14:06.572Z,1001.17
2018-07-05T06:14:47.035Z,1001.16
2018-07-05T06:15:28.196Z,1001.17
2018-07-05T06:16:08.729Z,1001.14
2018-07-05T06:16:49.479Z,1001.2
2018-07-05T06:17:31.937Z,1001.17
2018-07-05T06:18:12.941Z,1001.21
2018-07-05T06:18:53.442Z,1001.18
2018-07-05T06:19:34.955Z,1001.18
2018-07-05T06:20:15.617Z,1001.17
2018-07-05T06:20:56.350Z,1001.13
2018-07-05T06:21:37.590Z,1001.16
2018-07-05T06:22:18.869Z,1001.17
2018-07-05T06:22:59.953Z,1001.19
2018-07-05T06:23:40.430Z,1001.22
2018-07-05T06:24:20.906Z,1001.13
2018-07-05T06:25:01.422Z,1001.19
2018-07-05T06:25:42.898Z,1001.22
2018-07-05T06:26:23.337Z,1001.18
2018-07-05T06:27:03.847Z,1001.2
2018-07-05T06:27:44.305Z,1001.23
2018-07-05T06:28:26.251Z,1001.27
2018-07-05T06:29:06.744Z,1001.24
2018-07-05T06:29:48.226Z,1001.28
2018-07-05T06:30:28.718Z,1001.31
2018-07-05T06:31:09.258Z,1001.32
2018-07-05T06:31:50.341Z,1001.3
2018-07-05T06:32:30.885Z,1001.29
2018-07-05T06:33:11.652Z,1001.31
2018-07-05T06:33:52.101Z,1001.33
2018-07-05T06:34:32.675Z,1001.34
2018-07-05T06:35:13.215Z,1001.36
2018-07-05T06:35:53.749Z,1001.36
2018-07-05T06:36:34.239Z,1001.3
2018-07-05T06:37:14.716Z,1001.34
2018-07-05T06:37:55.207Z,1001.29
2018-07-05T06:38:35.731Z,1001.33
2018-07-05T06:39:17.142Z,1001.31
2018-07-05T06:39:57.680Z,1001.36
2018-07-05T06:40:38.200Z,1001.34
2018-07-05T06:41:18.835Z,1001.37
2018-07-05T06:41:59.274Z,1001.33
2018-07-05T06:42:40.002Z,1001.35
2018-07-05T06:43:20.558Z,1001.33
2018-07-05T06:44:01.173Z,1001.4
2018-07-05T06:44:41.641Z,1001.39
2018-07-05T06:45:22.201Z,1001.39
2018-07-05T06:46:03.329Z,1001.38
2018-07-05T06:46:43.724Z,1001.43
2018-07-05T06:47:24.322Z,1001.39
2018-07-05T06:48:04.770Z,1001.45
2018-07-05T06:48:45.981Z,1001.43
2018-07-05T06:49:26.553Z,1001.42
2018-07-05T06:50:06.974Z,1001.41
2018-07-05T06:50:48.433Z,1001.43
2018-07-05T06:51:29.010Z,1001.47
2018-07-05T06:52:09.555Z,1001.46
2018-07-05T06:52:50.031Z,1001.45
2018-07-05T06:53:31.136Z,1001.46
2018-07-05T06:54:13.449Z,1001.46
2018-07-05T06:54:54.015Z,1001.48
2018-07-05T06:55:34.671Z,1001.51
2018-07-05T06:56:15.831Z,1001.52
2018-07-05T06:56:56.493Z,1001.52
2018-07-05T06:57:37.032Z,1001.57
2018-07-05T06:58:17.502Z,1001.51
2018-07-05T06:58:58.445Z,1001.55
2018-07-05T06:59:39.014Z,1001.56
2018-07-05T07:00:19.484Z,1001.55
2018-07-05T07:01:00.272Z,1001.55
2018-07-05T07:01:40.777Z,1001.59
2018-07-05T07:02:21.313Z,1001.57
2018-07-05T07:03:01.885Z,1001.61
2018-07-05T07:03:42.328Z,1001.58
2018-07-05T07:04:22.794Z,1001.61
2018-07-05T07:05:03.285Z,1001.59
2018-07-05T07:05:43.795Z,1001.6
2018-07-05T07:06:24.261Z,1001.64
2018-07-05T07:07:05.640Z,1001.64
2018-07-05T07:07:46.668Z,1001.67
2018-07-05T07:08:28.153Z,1001.61
2018-07-05T07:09:08.723Z,1001.6
2018-07-05T07:09:49.212Z,1001.59
2018-07-05T07:10:29.740Z,1001.6
2018-07-05T07:11:10.255Z,1001.6
2018-07-05T07:11:50.751Z,1001.58
2018-07-05T07:12:31.285Z,1001.58
2018-07-05T07:13:11.805Z,1001.53
2018-07-05T07:13:52.342Z,1001.53
2018-07-05T07:14:32.853Z,1001.55
2018-07-05T07:15:13.351Z,1001.53
2018-07-05T07:15:53.878Z,1001.61
2018-07-05T07:16:34.460Z,1001.61
2018-07-05T07:17:14.989Z,1001.61
2018-07-05T07:17:55.420Z,1001.64
2018-07-05T07:18:35.967Z,1001.64
2018-07-05T07:19:17.391Z,1001.67
2018-07-05T07:19:58.484Z,1001.7
2018-07-05T07:20:38.961Z,1001.66
2018-07-05T07:21:19.449Z,1001.7
2018-07-05T07:22:00.022Z,1001.69
2018-07-05T07:22:40.488Z,1001.66
2018-07-05T07:23:20.991Z,1001.64
2018-07-05T07:24:02.093Z,1001.73
2018-07-05T07:24:43.466Z,1001.75
2018-07-05T07:25:23.975Z,1001.74
2018-07-05T07:26:04.514Z,1001.72
2018-07-05T07:26:44.993Z,1001.74
2018-07-05T07:27:25.521Z,1001.72
2018-07-05T07:28:06.078Z,1001.76
2018-07-05T07:28:47.484Z,1001.74
2018-07-05T07:29:27.956Z,1001.81
2018-07-05T07:30:08.445Z,1001.8
2018-07-05T07:30:49.042Z,1001.82
2018-07-05T07:31:29.676Z,1001.81
2018-07-05T07:32:10.112Z,1001.81
2018-07-05T07:32:50.620Z,1001.78
2018-07-05T07:33:31.227Z,1001.83
2018-07-05T07:34:11.709Z,1001.81
2018-07-05T07:34:52.199Z,1001.8
2018-07-05T07:35:32.698Z,1001.76
2018-07-05T07:36:13.203Z,1001.77
2018-07-05T07:36:53.741Z,1001.78
2018-07-05T07:37:34.339Z,1001.76
2018-07-05T07:38:14.847Z,1001.77
2018-07-05T07:38:55.340Z,1001.73
2018-07-05T07:39:35.810Z,1001.73
2018-07-05T07:40:16.328Z,1001.69
2018-07-05T07:40:56.868Z,1001.76
2018-07-05T07:41:37.359Z,1001.69
2018-07-05T07:42:17.899Z,1001.71
2018-07-05T07:42:58.422Z,1001.73
2018-07-05T07:43:38.904Z,1001.74
2018-07-05T07:44:19.359Z,1001.74
2018-07-05T07:44:59.891Z,1001.75
2018-07-05T07:45:40.415Z,1001.76
2018-07-05T07:46:20.940Z,1001.74
2018-07-05T07:47:01.428Z,1001.75
2018-07-05T07:47:41.948Z,1001.73
2018-07-05T07:48:22.455Z,1001.72
2018-07-05T07:49:03.003Z,1001.74
2018-07-05T07:49:43.460Z,1001.74
2018-07-05T07:50:24.041Z,1001.72
2018-07-05T07:51:05.426Z,1001.77
2018-07-05T07:51:46.936Z,1001.73
2018-07-05T07:52:28.179Z,1001.76
2018-07-05T07:53:08.670Z,1001.71
2018-07-05T07:53:49.182Z,1001.78
2018-07-05T07:54:29.931Z,1001.71
2018-07-05T07:55:10.447Z,1001.72
2018-07-05T07:55:50.961Z,1001.71
2018-07-05T07:56:31.866Z,1001.7
2018-07-05T07:57:12.385Z,1001.69
2018-07-05T07:57:53.394Z,1001.73
2018-07-05T07:58:33.915Z,1001.69
2018-07-05T07:59:14.377Z,1001.71
2018-07-05T07:59:55.477Z,1001.69
2018-07-05T08:00:37.001Z,1001.68
2018-07-05T08:01:17.479Z,1001.67
2018-07-05T08:01:58.007Z,1001.7
2018-07-05T08:02:38.429Z,1001.68
2018-07-05T08:03:18.955Z,1001.72
2018-07-05T08:03:59.426Z,1001.69
2018-07-05T08:04:40.005Z,1001.68
2018-07-05T08:05:20.469Z,1001.69
2018-07-05T08:06:01.008Z,1001.67
2018-07-05T08:06:41.617Z,1001.65
2018-07-05T08:07:22.048Z,1001.66
2018-07-05T08:08:03.275Z,1001.62
2018-07-05T08:08:44.520Z,1001.65
2018-07-05T08:09:25.026Z,1001.66
2018-07-05T08:10:05.561Z,1001.71
2018-07-05T08:10:46.630Z,1001.67
2018-07-05T08:11:27.172Z,1001.63
2018-07-05T08:12:07.630Z,1001.62
2018-07-05T08:12:48.558Z,1001.62
2018-07-05T08:13:30.724Z,1001.62
2018-07-05T08:14:11.211Z,1001.6
2018-07-05T08:14:51.777Z,1001.61
2018-07-05T08:15:32.278Z,1001.6
2018-07-05T08:16:12.727Z,1001.61
2018-07-05T08:16:54.105Z,1001.58
2018-07-05T08:17:35.213Z,1001.57
2018-07-05T08:18:15.707Z,1001.57